createdAt,value
2016-10-21T00:00:14.389Z,9.9
2016-10-21T00:00:35.021Z,9.9
2016-10-21T00:00:55.635Z,9.9
2016-10-21T00:01:16.227Z,9.8
2016-10-21T00:01:36.795Z,9.9
2016-10-21T00:01:57.367Z,9.8
2016-10-21T00:02:17.943Z,9.8
2016-10-21T00:02:38.535Z,10
2016-10-21T00:02:59.096Z,9.9
2016-10-21T00:03:19.677Z,9.9
2016-10-21T00:03:40.246Z,9.8
2016-10-21T00:04:00.827Z,9.9
2016-10-21T00:04:21.418Z,9.9
2016-10-21T00:04:41.990Z,9.9
2016-10-21T00:05:02.559Z,9.9
2016-10-21T00:05:23.139Z,9.8
2016-10-21T00:05:43.782Z,9.9
2016-10-21T00:06:04.357Z,9.9
2016-10-21T00:06:25.731Z,9.9
2016-10-21T00:06:46.305Z,9.9
2016-10-21T00:07:06.880Z,9.9
2016-10-21T00:07:27.452Z,9.8
2016-10-21T00:07:48.038Z,9.9
2016-10-21T00:08:08.622Z,9.8
2016-10-21T00:08:29.219Z,9.9
2016-10-21T00:08:49.833Z,9.9
2016-10-21T00:09:10.411Z,9.9
2016-10-21T00:09:31.103Z,9.9
2016-10-21T00:09:51.713Z,9.8
2016-10-21T00:10:12.306Z,9.9
2016-10-21T00:10:32.881Z,9.8
2016-10-21T00:10:53.459Z,10
2016-10-21T00:11:14.080Z,9.9
2016-10-21T00:11:34.650Z,9.9
2016-10-21T00:11:55.229Z,10
2016-10-21T00:12:15.833Z,9.9
2016-10-21T00:12:36.394Z,9.9
2016-10-21T00:12:56.956Z,9.8
2016-10-21T00:13:17.561Z,10
2016-10-21T00:13:38.138Z,9.9
2016-10-21T00:13:58.711Z,10
2016-10-21T00:14:19.288Z,9.9
2016-10-21T00:14:39.858Z,10
2016-10-21T00:15:00.417Z,10
2016-10-21T00:15:20.980Z,9.9
2016-10-21T00:15:41.595Z,10
2016-10-21T00:16:02.247Z,10
2016-10-21T00:16:22.829Z,10
2016-10-21T00:16:43.417Z,10
2016-10-21T00:17:03.982Z,9.9
2016-10-21T00:17:24.546Z,10
2016-10-21T00:17:45.192Z,9.9
2016-10-21T00:18:05.767Z,10
2016-10-21T00:18:26.350Z,10
2016-10-21T00:18:46.941Z,9.9
2016-10-21T00:19:07.525Z,9.9
2016-10-21T00:19:28.122Z,10
2016-10-21T00:19:48.704Z,10
2016-10-21T00:20:09.287Z,10
2016-10-21T00:20:29.863Z,9.9
2016-10-21T00:20:50.428Z,9.9
2016-10-21T00:21:11.013Z,10
2016-10-21T00:21:31.606Z,10
2016-10-21T00:21:52.195Z,10
2016-10-21T00:22:12.813Z,10
2016-10-21T00:22:33.437Z,10
2016-10-21T00:22:54.019Z,9.9
2016-10-21T00:23:14.618Z,9.9
2016-10-21T00:23:35.188Z,10
2016-10-21T00:23:55.792Z,10
2016-10-21T00:24:16.355Z,9.9
2016-10-21T00:24:36.932Z,10
2016-10-21T00:24:57.549Z,10
2016-10-21T00:25:18.110Z,9.9
2016-10-21T00:25:38.684Z,10.1
2016-10-21T00:25:59.249Z,10
2016-10-21T00:26:19.832Z,10
2016-10-21T00:26:40.448Z,10
2016-10-21T00:27:01.053Z,10
2016-10-21T00:27:21.635Z,10
2016-10-21T00:27:42.205Z,10
2016-10-21T00:28:02.797Z,9.9
2016-10-21T00:28:23.405Z,10
2016-10-21T00:28:43.970Z,10
2016-10-21T00:29:04.543Z,10
2016-10-21T00:29:25.148Z,9.9
2016-10-21T00:29:45.719Z,10
2016-10-21T00:30:06.313Z,10
2016-10-21T00:30:26.890Z,9.9
2016-10-21T00:30:47.489Z,10
2016-10-21T00:31:08.073Z,10
2016-10-21T00:31:28.680Z,10
2016-10-21T00:31:49.247Z,9.9
2016-10-21T00:32:09.875Z,10
2016-10-21T00:32:30.448Z,9.9
2016-10-21T00:32:51.026Z,9.9
2016-10-21T00:33:11.634Z,10
2016-10-21T00:33:32.237Z,9.9
2016-10-21T00:33:52.823Z,9.9
2016-10-21T00:34:13.406Z,10
2016-10-21T00:34:33.986Z,10
2016-10-21T00:34:54.565Z,9.9
2016-10-21T00:35:15.162Z,10
2016-10-21T00:35:35.745Z,9.9
2016-10-21T00:35:56.333Z,9.9
2016-10-21T00:36:16.905Z,10
2016-10-21T00:36:37.486Z,9.9
2016-10-21T00:36:58.058Z,9.9
2016-10-21T00:37:18.638Z,10
2016-10-21T00:37:39.241Z,10
2016-10-21T00:37:59.809Z,10
2016-10-21T00:38:20.400Z,9.9
2016-10-21T00:38:40.973Z,9.9
2016-10-21T00:39:01.544Z,9.9
2016-10-21T00:39:22.121Z,9.9
2016-10-21T00:39:42.703Z,9.9
2016-10-21T00:40:03.302Z,9.8
2016-10-21T00:40:23.869Z,9.8
2016-10-21T00:40:44.450Z,9.9
2016-10-21T00:41:05.020Z,9.8
2016-10-21T00:41:25.603Z,9.9
2016-10-21T00:41:46.188Z,9.9
2016-10-21T00:42:06.762Z,9.8
2016-10-21T00:42:27.392Z,9.8
2016-10-21T00:42:47.966Z,9.9
2016-10-21T00:43:08.541Z,9.9
2016-10-21T00:43:29.126Z,10
2016-10-21T00:43:49.752Z,9.9
2016-10-21T00:44:10.325Z,9.9
2016-10-21T00:44:30.934Z,9.9
2016-10-21T00:44:51.514Z,10
2016-10-21T00:45:12.085Z,9.9
2016-10-21T00:45:32.782Z,9.9
2016-10-21T00:45:53.348Z,9.9
2016-10-21T00:46:13.926Z,9.9
2016-10-21T00:46:34.521Z,9.9
2016-10-21T00:46:55.088Z,9.9
2016-10-21T00:47:15.750Z,10
2016-10-21T00:47:36.314Z,9.9
2016-10-21T00:47:56.897Z,9.9
2016-10-21T00:48:17.492Z,9.9
2016-10-21T00:48:38.062Z,9.9
2016-10-21T00:48:58.633Z,10
2016-10-21T00:49:19.237Z,9.9
2016-10-21T00:49:39.813Z,10
2016-10-21T00:50:00.394Z,9.9
2016-10-21T00:50:20.978Z,9.9
2016-10-21T00:50:41.545Z,9.9
2016-10-21T00:51:02.125Z,9.9
2016-10-21T00:51:22.703Z,10
2016-10-21T00:51:43.288Z,9.9
2016-10-21T00:52:03.864Z,9.9
2016-10-21T00:52:24.441Z,9.9
2016-10-21T00:52:45.024Z,9.9
2016-10-21T00:53:05.598Z,9.9
2016-10-21T00:53:26.183Z,9.9
2016-10-21T00:53:46.757Z,9.9
2016-10-21T00:54:07.362Z,10
2016-10-21T00:54:27.962Z,10
2016-10-21T00:54:48.541Z,9.9
2016-10-21T00:55:09.126Z,10
2016-10-21T00:55:29.692Z,9.9
2016-10-21T00:55:50.305Z,10
2016-10-21T00:56:10.907Z,10
2016-10-21T00:56:31.521Z,9.9
2016-10-21T00:56:52.133Z,10
2016-10-21T00:57:12.732Z,10
2016-10-21T00:57:33.306Z,10
2016-10-21T00:57:53.887Z,9.9
2016-10-21T00:58:14.457Z,9.9
2016-10-21T00:58:35.055Z,9.9
2016-10-21T00:58:55.629Z,10
2016-10-21T00:59:16.198Z,9.9
2016-10-21T00:59:36.783Z,9.9
2016-10-21T00:59:57.354Z,10
2016-10-21T01:00:17.943Z,9.9
2016-10-21T01:00:38.522Z,10
2016-10-21T01:00:59.089Z,10
2016-10-21T01:01:19.681Z,10
2016-10-21T01:01:40.296Z,10
2016-10-21T01:02:00.953Z,10
2016-10-21T01:02:21.527Z,10
2016-10-21T01:02:42.166Z,9.9
2016-10-21T01:03:02.760Z,10
2016-10-21T01:03:23.331Z,9.9
2016-10-21T01:03:43.935Z,10
2016-10-21T01:04:04.533Z,10
2016-10-21T01:04:25.113Z,10
2016-10-21T01:04:45.678Z,10
2016-10-21T01:05:06.264Z,10
2016-10-21T01:05:26.832Z,10
2016-10-21T01:05:47.404Z,9.9
2016-10-21T01:06:07.969Z,10
2016-10-21T01:06:28.565Z,10
2016-10-21T01:06:49.137Z,9.9
2016-10-21T01:07:09.719Z,10
2016-10-21T01:07:30.288Z,10
2016-10-21T01:07:50.855Z,9.9
2016-10-21T01:08:11.426Z,10
2016-10-21T01:08:32.004Z,9.9
2016-10-21T01:08:52.568Z,9.9
2016-10-21T01:09:13.130Z,9.9
2016-10-21T01:09:33.705Z,10
2016-10-21T01:09:54.283Z,10
2016-10-21T01:10:14.908Z,9.9
2016-10-21T01:10:35.472Z,10
2016-10-21T01:10:56.083Z,9.9
2016-10-21T01:11:16.649Z,9.9
2016-10-21T01:11:37.219Z,9.9
2016-10-21T01:11:57.792Z,9.9
2016-10-21T01:12:18.378Z,10
2016-10-21T01:12:38.972Z,9.9
2016-10-21T01:12:59.553Z,10
2016-10-21T01:13:20.156Z,9.9
2016-10-21T01:13:40.730Z,9.9
2016-10-21T01:14:01.301Z,9.9
2016-10-21T01:14:21.874Z,9.9
2016-10-21T01:14:42.440Z,9.9
2016-10-21T01:15:03.075Z,9.9
2016-10-21T01:15:23.649Z,9.9
2016-10-21T01:15:44.230Z,9.9
2016-10-21T01:16:04.803Z,10
2016-10-21T01:16:25.386Z,10
2016-10-21T01:16:45.947Z,10
2016-10-21T01:17:06.544Z,9.9
2016-10-21T01:17:27.141Z,10
2016-10-21T01:17:47.714Z,9.9
2016-10-21T01:18:08.293Z,10
2016-10-21T01:18:28.889Z,9.9
2016-10-21T01:18:49.520Z,9.9
2016-10-21T01:19:10.088Z,10
2016-10-21T01:19:30.685Z,9.9
2016-10-21T01:19:51.264Z,10
2016-10-21T01:20:11.834Z,10
2016-10-21T01:20:32.407Z,9.9
2016-10-21T01:20:53.026Z,9.9
2016-10-21T01:21:13.593Z,10
2016-10-21T01:21:34.167Z,10
2016-10-21T01:21:54.751Z,10
2016-10-21T01:22:15.326Z,9.9
2016-10-21T01:22:35.897Z,9.9
2016-10-21T01:22:56.481Z,10
2016-10-21T01:23:17.052Z,9.9
2016-10-21T01:23:37.644Z,10
2016-10-21T01:23:58.233Z,9.9
2016-10-21T01:24:18.830Z,10
2016-10-21T01:24:39.395Z,9.9
2016-10-21T01:24:59.969Z,9.9
2016-10-21T01:25:20.588Z,9.9
2016-10-21T01:25:41.154Z,9.9
2016-10-21T01:26:01.719Z,9.8
2016-10-21T01:26:22.294Z,9.9
2016-10-21T01:26:42.869Z,9.9
2016-10-21T01:27:03.449Z,10
2016-10-21T01:27:24.025Z,9.9
2016-10-21T01:27:44.659Z,9.8
2016-10-21T01:28:05.226Z,9.9
2016-10-21T01:28:25.805Z,9.9
2016-10-21T01:28:46.387Z,10
2016-10-21T01:29:06.950Z,9.9
2016-10-21T01:29:27.571Z,9.9
2016-10-21T01:29:48.145Z,9.9
2016-10-21T01:30:08.756Z,9.9
2016-10-21T01:30:29.377Z,9.9
2016-10-21T01:30:50.003Z,9.8
2016-10-21T01:31:10.588Z,9.9
2016-10-21T01:31:31.188Z,9.9
2016-10-21T01:31:51.787Z,9.9
2016-10-21T01:32:12.369Z,9.9
2016-10-21T01:32:33.036Z,9.9
2016-10-21T01:32:53.616Z,9.9
2016-10-21T01:33:14.190Z,9.9
2016-10-21T01:33:34.772Z,9.9
2016-10-21T01:33:55.376Z,9.9
2016-10-21T01:34:16.000Z,9.9
2016-10-21T01:34:36.624Z,9.9
2016-10-21T01:34:57.208Z,9.8
2016-10-21T01:35:17.778Z,9.9
2016-10-21T01:35:38.353Z,9.8
2016-10-21T01:35:58.921Z,9.9
2016-10-21T01:36:19.488Z,9.9
2016-10-21T01:36:40.038Z,9.9
2016-10-21T01:37:00.639Z,9.8
2016-10-21T01:37:21.217Z,9.9
2016-10-21T01:37:41.838Z,9.9
2016-10-21T01:38:02.408Z,9.9
2016-10-21T01:38:22.991Z,9.8
2016-10-21T01:38:43.565Z,9.8
2016-10-21T01:39:04.181Z,9.9
2016-10-21T01:39:24.764Z,9.8
2016-10-21T01:39:45.411Z,9.9
2016-10-21T01:40:06.003Z,9.9
2016-10-21T01:40:26.582Z,9.8
2016-10-21T01:40:47.167Z,9.9
2016-10-21T01:41:07.747Z,9.8
2016-10-21T01:41:28.364Z,9.9
2016-10-21T01:41:48.979Z,9.8
2016-10-21T01:42:09.564Z,9.9
2016-10-21T01:42:30.171Z,9.8
2016-10-21T01:42:50.779Z,9.8
2016-10-21T01:43:11.349Z,9.8
2016-10-21T01:43:31.913Z,9.9
2016-10-21T01:43:52.496Z,9.9
2016-10-21T01:44:13.086Z,9.9
2016-10-21T01:44:33.679Z,9.9
2016-10-21T01:44:54.273Z,9.8
2016-10-21T01:45:14.868Z,9.9
2016-10-21T01:45:35.490Z,9.9
2016-10-21T01:45:56.060Z,9.9
2016-10-21T01:46:16.638Z,9.9
2016-10-21T01:46:37.215Z,9.9
2016-10-21T01:46:57.818Z,9.9
2016-10-21T01:47:18.396Z,9.9
2016-10-21T01:47:38.977Z,9.9
2016-10-21T01:47:59.555Z,9.9
2016-10-21T01:48:20.149Z,10
2016-10-21T01:48:40.730Z,9.9
2016-10-21T01:49:01.300Z,10
2016-10-21T01:49:21.871Z,9.7
2016-10-21T01:49:42.541Z,9.9
2016-10-21T01:50:03.127Z,9.8
2016-10-21T01:50:23.708Z,9.9
2016-10-21T01:50:44.290Z,10
2016-10-21T01:51:04.871Z,9.9
2016-10-21T01:51:25.457Z,9.9
2016-10-21T01:51:46.027Z,9.8
2016-10-21T01:52:06.672Z,9.9
2016-10-21T01:52:27.266Z,9.8
2016-10-21T01:52:47.847Z,9.9
2016-10-21T01:53:08.415Z,9.8
2016-10-21T01:53:28.986Z,9.9
2016-10-21T01:53:49.627Z,9.8
2016-10-21T01:54:10.254Z,9.9
2016-10-21T01:54:30.866Z,9.8
2016-10-21T01:54:51.454Z,9.8
2016-10-21T01:55:12.065Z,9.8
2016-10-21T01:55:32.631Z,9.8
2016-10-21T01:55:53.227Z,9.8
2016-10-21T01:56:13.822Z,9.9
2016-10-21T01:56:34.406Z,9.8
2016-10-21T01:56:54.972Z,9.8
2016-10-21T01:57:15.568Z,9.8
2016-10-21T01:57:36.140Z,9.8
2016-10-21T01:57:56.725Z,9.8
2016-10-21T01:58:17.333Z,9.9
2016-10-21T01:58:37.901Z,9.8
2016-10-21T01:58:58.475Z,9.8
2016-10-21T01:59:19.058Z,9.8
2016-10-21T01:59:39.626Z,9.7
2016-10-21T02:00:00.197Z,9.8
2016-10-21T02:00:20.787Z,9.8
2016-10-21T02:00:41.365Z,9.7
2016-10-21T02:01:01.940Z,9.7
2016-10-21T02:01:22.506Z,9.8
2016-10-21T02:01:43.103Z,9.7
2016-10-21T02:02:03.678Z,9.7
2016-10-21T02:02:24.264Z,9.7
2016-10-21T02:02:44.833Z,9.7
2016-10-21T02:03:05.393Z,9.7
2016-10-21T02:03:25.972Z,9.7
2016-10-21T02:03:46.550Z,9.7
2016-10-21T02:04:07.123Z,9.7
2016-10-21T02:04:27.703Z,9.7
2016-10-21T02:04:48.303Z,9.7
2016-10-21T02:05:08.887Z,9.7
2016-10-21T02:05:29.516Z,9.7
2016-10-21T02:05:50.078Z,9.8
2016-10-21T02:06:10.664Z,9.7
2016-10-21T02:06:31.287Z,9.7
2016-10-21T02:06:51.865Z,9.7
2016-10-21T02:07:12.445Z,9.7
2016-10-21T02:07:33.024Z,9.7
2016-10-21T02:07:53.606Z,9.7
2016-10-21T02:08:14.176Z,9.7
2016-10-21T02:08:34.786Z,9.7
2016-10-21T02:08:55.383Z,9.7
2016-10-21T02:09:15.973Z,9.6
2016-10-21T02:09:36.557Z,9.7
2016-10-21T02:09:57.174Z,9.7
2016-10-21T02:10:17.752Z,9.7
2016-10-21T02:10:38.387Z,9.7
2016-10-21T02:10:58.969Z,9.6
2016-10-21T02:11:19.548Z,9.6
2016-10-21T02:11:40.118Z,9.7
2016-10-21T02:12:00.677Z,9.6
2016-10-21T02:12:21.243Z,9.6
2016-10-21T02:12:41.857Z,9.6
2016-10-21T02:13:02.413Z,9.7
2016-10-21T02:13:22.983Z,9.6
2016-10-21T02:13:43.552Z,9.6
2016-10-21T02:14:04.125Z,9.7
2016-10-21T02:14:24.696Z,9.6
2016-10-21T02:14:45.264Z,9.7
2016-10-21T02:15:05.838Z,9.6
2016-10-21T02:15:26.420Z,9.7
2016-10-21T02:15:46.993Z,9.7
2016-10-21T02:16:07.614Z,9.7
2016-10-21T02:16:28.193Z,9.7
2016-10-21T02:16:48.780Z,9.6
2016-10-21T02:17:09.359Z,9.6
2016-10-21T02:17:29.973Z,9.7
2016-10-21T02:17:50.549Z,9.6
2016-10-21T02:18:11.146Z,9.6
2016-10-21T02:18:31.702Z,9.6
2016-10-21T02:18:52.306Z,9.7
2016-10-21T02:19:12.868Z,9.6
2016-10-21T02:19:33.435Z,9.7
2016-10-21T02:19:54.016Z,9.6
2016-10-21T02:20:14.681Z,9.7
2016-10-21T02:20:35.282Z,9.7
2016-10-21T02:20:55.850Z,9.7
2016-10-21T02:21:16.469Z,9.6
2016-10-21T02:21:37.033Z,9.6
2016-10-21T02:21:57.593Z,9.6
2016-10-21T02:22:18.173Z,9.7
2016-10-21T02:22:38.787Z,9.6
2016-10-21T02:22:59.392Z,9.7
2016-10-21T02:23:19.975Z,9.6
2016-10-21T02:23:40.539Z,9.6
2016-10-21T02:24:01.105Z,9.6
2016-10-21T02:24:21.727Z,9.7
2016-10-21T02:24:42.358Z,9.6
2016-10-21T02:25:02.972Z,9.6
2016-10-21T02:25:23.530Z,9.6
2016-10-21T02:25:44.105Z,9.7
2016-10-21T02:26:04.668Z,9.7
2016-10-21T02:26:25.231Z,9.7
2016-10-21T02:26:45.823Z,9.6
2016-10-21T02:27:06.380Z,9.5
2016-10-21T02:27:26.971Z,9.7
2016-10-21T02:27:47.564Z,9.7
2016-10-21T02:28:08.146Z,9.6
2016-10-21T02:28:28.714Z,9.5
2016-10-21T02:28:49.302Z,9.6
2016-10-21T02:29:09.892Z,9.6
2016-10-21T02:29:30.471Z,9.6
2016-10-21T02:29:51.045Z,9.6
2016-10-21T02:30:11.652Z,9.6
2016-10-21T02:30:32.219Z,9.6
2016-10-21T02:30:52.784Z,9.6
2016-10-21T02:31:13.355Z,9.6
2016-10-21T02:31:33.964Z,9.6
2016-10-21T02:31:54.531Z,9.6
2016-10-21T02:32:15.104Z,9.6
2016-10-21T02:32:35.706Z,9.6
2016-10-21T02:32:56.261Z,9.6
2016-10-21T02:33:16.849Z,9.6
2016-10-21T02:33:37.402Z,9.6
2016-10-21T02:33:57.970Z,9.7
2016-10-21T02:34:18.554Z,9.6
2016-10-21T02:34:39.123Z,9.7
2016-10-21T02:34:59.702Z,9.5
2016-10-21T02:35:20.304Z,9.6
2016-10-21T02:35:40.884Z,9.6
2016-10-21T02:36:01.469Z,9.6
2016-10-21T02:36:22.048Z,9.5
2016-10-21T02:36:42.622Z,9.6
2016-10-21T02:37:03.195Z,9.5
2016-10-21T02:37:23.773Z,9.6
2016-10-21T02:37:44.367Z,9.5
2016-10-21T02:38:04.952Z,9.6
2016-10-21T02:38:25.538Z,9.5
2016-10-21T02:38:46.151Z,9.6
2016-10-21T02:39:06.706Z,9.6
2016-10-21T02:39:27.288Z,9.6
2016-10-21T02:39:47.852Z,9.6
2016-10-21T02:40:08.470Z,9.5
2016-10-21T02:40:29.048Z,9.6
2016-10-21T02:40:49.624Z,9.5
2016-10-21T02:41:10.202Z,9.5
2016-10-21T02:41:30.829Z,9.5
2016-10-21T02:41:51.417Z,9.6
2016-10-21T02:42:11.976Z,9.5
2016-10-21T02:42:32.584Z,9.6
2016-10-21T02:42:53.171Z,9.6
2016-10-21T02:43:13.750Z,9.6
2016-10-21T02:43:34.373Z,9.7
2016-10-21T02:43:54.988Z,9.6
2016-10-21T02:44:15.599Z,9.6
2016-10-21T02:44:36.163Z,9.6
2016-10-21T02:44:56.784Z,9.6
2016-10-21T02:45:17.361Z,9.5
2016-10-21T02:45:37.960Z,9.6
2016-10-21T02:45:58.528Z,9.6
2016-10-21T02:46:19.095Z,9.6
2016-10-21T02:46:39.658Z,9.6
2016-10-21T02:47:00.222Z,9.5
2016-10-21T02:47:20.799Z,9.6
2016-10-21T02:47:41.375Z,9.5
2016-10-21T02:48:01.968Z,9.6
2016-10-21T02:48:22.555Z,9.6
2016-10-21T02:48:43.199Z,9.7
2016-10-21T02:49:03.785Z,9.5
2016-10-21T02:49:24.418Z,9.6
2016-10-21T02:49:45.036Z,9.6
2016-10-21T02:50:05.602Z,9.6
2016-10-21T02:50:26.186Z,9.6
2016-10-21T02:50:46.801Z,9.7
2016-10-21T02:51:07.451Z,9.6
2016-10-21T02:51:28.031Z,9.6
2016-10-21T02:51:48.607Z,9.6
2016-10-21T02:52:09.175Z,9.6
2016-10-21T02:52:29.789Z,9.5
2016-10-21T02:52:50.391Z,9.6
2016-10-21T02:53:10.969Z,9.6
2016-10-21T02:53:31.564Z,9.5
2016-10-21T02:53:52.140Z,9.6
2016-10-21T02:54:12.716Z,9.5
2016-10-21T02:54:33.283Z,9.7
2016-10-21T02:54:53.901Z,9.5
2016-10-21T02:55:14.490Z,9.6
2016-10-21T02:55:35.079Z,9.6
2016-10-21T02:55:55.661Z,9.6
2016-10-21T02:56:16.236Z,9.6
2016-10-21T02:56:36.799Z,9.5
2016-10-21T02:56:57.375Z,9.6
2016-10-21T02:57:17.938Z,9.5
2016-10-21T02:57:38.509Z,9.6
2016-10-21T02:57:59.138Z,9.5
2016-10-21T02:58:19.803Z,9.5
2016-10-21T02:58:40.395Z,9.6
2016-10-21T02:59:00.968Z,9.6
2016-10-21T02:59:21.550Z,9.6
2016-10-21T02:59:42.116Z,9.5
2016-10-21T03:00:02.690Z,9.6
2016-10-21T03:00:23.312Z,9.6
2016-10-21T03:00:43.906Z,9.6
2016-10-21T03:01:04.489Z,9.6
2016-10-21T03:01:25.074Z,9.6
2016-10-21T03:01:45.662Z,9.6
2016-10-21T03:02:06.234Z,9.6
2016-10-21T03:02:26.801Z,9.6
2016-10-21T03:02:47.376Z,9.6
2016-10-21T03:03:07.990Z,9.6
2016-10-21T03:03:28.643Z,9.5
2016-10-21T03:03:49.209Z,9.6
2016-10-21T03:04:09.791Z,9.6
2016-10-21T03:04:30.365Z,9.6
2016-10-21T03:04:50.955Z,9.6
2016-10-21T03:05:11.572Z,9.5
2016-10-21T03:05:32.157Z,9.6
2016-10-21T03:05:52.824Z,9.6
2016-10-21T03:06:13.416Z,9.6
2016-10-21T03:06:34.016Z,9.5
2016-10-21T03:06:54.595Z,9.6
2016-10-21T03:07:15.172Z,9.6
2016-10-21T03:07:35.750Z,9.6
2016-10-21T03:07:56.329Z,9.6
2016-10-21T03:08:16.911Z,9.6
2016-10-21T03:08:37.489Z,9.6
2016-10-21T03:08:58.062Z,9.6
2016-10-21T03:09:18.628Z,9.6
2016-10-21T03:09:39.206Z,9.5
2016-10-21T03:09:59.797Z,9.6
2016-10-21T03:10:20.382Z,9.5
2016-10-21T03:10:40.969Z,9.5
2016-10-21T03:11:01.556Z,9.5
2016-10-21T03:11:22.128Z,9.6
2016-10-21T03:11:42.727Z,9.5
2016-10-21T03:12:03.277Z,9.5
2016-10-21T03:12:23.918Z,9.6
2016-10-21T03:12:44.501Z,9.6
2016-10-21T03:13:05.077Z,9.5
2016-10-21T03:13:25.684Z,9.5
2016-10-21T03:13:46.261Z,9.6
2016-10-21T03:14:06.853Z,9.5
2016-10-21T03:14:27.447Z,9.5
2016-10-21T03:14:48.015Z,9.5
2016-10-21T03:15:08.584Z,9.5
2016-10-21T03:15:29.156Z,9.5
2016-10-21T03:15:49.734Z,9.5
2016-10-21T03:16:10.315Z,9.5
2016-10-21T03:16:30.869Z,9.5
2016-10-21T03:16:51.439Z,9.5
2016-10-21T03:17:12.097Z,9.5
2016-10-21T03:17:32.656Z,9.5
2016-10-21T03:17:53.249Z,9.6
2016-10-21T03:18:13.823Z,9.6
2016-10-21T03:18:34.405Z,9.5
2016-10-21T03:18:55.002Z,9.5
2016-10-21T03:19:15.593Z,9.6
2016-10-21T03:19:36.164Z,9.5
2016-10-21T03:19:56.723Z,9.5
2016-10-21T03:20:17.325Z,9.5
2016-10-21T03:20:37.931Z,9.5
2016-10-21T03:20:58.515Z,9.6
2016-10-21T03:21:19.103Z,9.5
2016-10-21T03:21:39.709Z,9.5
2016-10-21T03:22:00.271Z,9.5
2016-10-21T03:22:20.858Z,9.5
2016-10-21T03:22:41.908Z,9.5
2016-10-21T03:23:02.462Z,9.5
2016-10-21T03:23:23.044Z,9.6
2016-10-21T03:23:43.660Z,9.5
2016-10-21T03:24:04.222Z,9.6
2016-10-21T03:24:24.818Z,9.5
2016-10-21T03:24:45.389Z,9.5
2016-10-21T03:25:06.003Z,9.5
2016-10-21T03:25:26.576Z,9.5
2016-10-21T03:25:47.179Z,9.5
2016-10-21T03:26:07.731Z,9.5
2016-10-21T03:26:28.301Z,9.5
2016-10-21T03:26:48.872Z,9.4
2016-10-21T03:27:09.450Z,9.4
2016-10-21T03:27:30.008Z,9.5
2016-10-21T03:27:50.607Z,9.5
2016-10-21T03:28:11.165Z,9.5
2016-10-21T03:28:31.715Z,9.5
2016-10-21T03:28:52.274Z,9.5
2016-10-21T03:29:12.853Z,9.5
2016-10-21T03:29:33.478Z,9.5
2016-10-21T03:29:54.059Z,9.5
2016-10-21T03:30:14.632Z,9.5
2016-10-21T03:30:35.199Z,9.5
2016-10-21T03:30:55.779Z,9.5
2016-10-21T03:31:16.354Z,9.5
2016-10-21T03:31:36.925Z,9.5
2016-10-21T03:31:57.492Z,9.5
2016-10-21T03:32:18.084Z,9.5
2016-10-21T03:32:38.651Z,9.5
2016-10-21T03:32:59.221Z,9.5
2016-10-21T03:33:19.817Z,9.5
2016-10-21T03:33:40.406Z,9.5
2016-10-21T03:34:01.015Z,9.4
2016-10-21T03:34:21.586Z,9.4
2016-10-21T03:34:42.164Z,9.5
2016-10-21T03:35:02.738Z,9.5
2016-10-21T03:35:23.307Z,9.5
2016-10-21T03:35:43.899Z,9.5
2016-10-21T03:36:04.463Z,9.5
2016-10-21T03:36:25.054Z,9.5
2016-10-21T03:36:45.685Z,9.5
2016-10-21T03:37:06.252Z,9.4
2016-10-21T03:37:26.828Z,9.5
2016-10-21T03:37:47.439Z,9.5
2016-10-21T03:38:08.016Z,9.5
2016-10-21T03:38:28.586Z,9.5
2016-10-21T03:38:49.224Z,9.4
2016-10-21T03:39:09.795Z,9.5
2016-10-21T03:39:30.410Z,9.5
2016-10-21T03:39:50.988Z,9.5
2016-10-21T03:40:11.558Z,9.4
2016-10-21T03:40:32.130Z,9.5
2016-10-21T03:40:52.735Z,9.5
2016-10-21T03:41:13.313Z,9.5
2016-10-21T03:41:33.894Z,9.4
2016-10-21T03:41:54.498Z,9.5
2016-10-21T03:42:15.088Z,9.5
2016-10-21T03:42:35.663Z,9.5
2016-10-21T03:42:56.244Z,9.5
2016-10-21T03:43:16.812Z,9.4
2016-10-21T03:43:37.434Z,9.4
2016-10-21T03:43:58.102Z,9.5
2016-10-21T03:44:18.681Z,9.5
2016-10-21T03:44:39.241Z,9.4
2016-10-21T03:44:59.807Z,9.4
2016-10-21T03:45:20.380Z,9.4
2016-10-21T03:45:40.946Z,9.4
2016-10-21T03:46:01.507Z,9.5
2016-10-21T03:46:22.135Z,9.4
2016-10-21T03:46:42.688Z,9.4
2016-10-21T03:47:03.274Z,9.5
2016-10-21T03:47:23.914Z,9.4
2016-10-21T03:47:44.500Z,9.4
2016-10-21T03:48:05.074Z,9.4
2016-10-21T03:48:25.689Z,9.4
2016-10-21T03:48:46.261Z,9.4
2016-10-21T03:49:06.866Z,9.5
2016-10-21T03:49:27.455Z,9.4
2016-10-21T03:49:48.025Z,9.4
2016-10-21T03:50:08.619Z,9.4
2016-10-21T03:50:29.198Z,9.4
2016-10-21T03:50:49.773Z,9.5
2016-10-21T03:51:10.355Z,9.5
2016-10-21T03:51:30.925Z,9.5
2016-10-21T03:51:51.503Z,9.5
2016-10-21T03:52:12.091Z,9.3
2016-10-21T03:52:32.667Z,9.4
2016-10-21T03:52:53.255Z,9.4
2016-10-21T03:53:13.832Z,9.5
2016-10-21T03:53:34.407Z,9.4
2016-10-21T03:53:54.974Z,9.4
2016-10-21T03:54:15.544Z,9.4
2016-10-21T03:54:36.117Z,9.4
2016-10-21T03:54:56.715Z,9.4
2016-10-21T03:55:17.299Z,9.5
2016-10-21T03:55:37.873Z,9.5
2016-10-21T03:55:58.445Z,9.4
2016-10-21T03:56:19.018Z,9.4
2016-10-21T03:56:39.633Z,9.4
2016-10-21T03:57:00.193Z,9.4
2016-10-21T03:57:20.823Z,9.4
2016-10-21T03:57:41.394Z,9.4
2016-10-21T03:58:01.971Z,9.4
2016-10-21T03:58:22.581Z,9.4
2016-10-21T03:58:43.196Z,9.5
2016-10-21T03:59:03.759Z,9.4
2016-10-21T03:59:24.368Z,9.4
2016-10-21T03:59:45.001Z,9.4
2016-10-21T04:00:05.618Z,9.4
2016-10-21T04:00:26.199Z,9.4
2016-10-21T04:00:46.791Z,9.4
2016-10-21T04:01:07.386Z,9.4
2016-10-21T04:01:27.987Z,9.4
2016-10-21T04:01:48.569Z,9.4
2016-10-21T04:02:09.151Z,9.5
2016-10-21T04:02:29.753Z,9.4
2016-10-21T04:02:50.331Z,9.4
2016-10-21T04:03:10.929Z,9.3
2016-10-21T04:03:31.497Z,9.4
2016-10-21T04:03:52.075Z,9.4
2016-10-21T04:04:12.680Z,9.4
2016-10-21T04:04:33.258Z,9.4
2016-10-21T04:04:53.861Z,9.4
2016-10-21T04:05:14.478Z,9.4
2016-10-21T04:05:35.092Z,9.4
2016-10-21T04:05:55.684Z,9.4
2016-10-21T04:06:16.267Z,9.4
2016-10-21T04:06:36.847Z,9.4
2016-10-21T04:06:57.448Z,9.4
2016-10-21T04:07:18.025Z,9.4
2016-10-21T04:07:38.596Z,9.4
2016-10-21T04:07:59.169Z,9.3
2016-10-21T04:08:19.751Z,9.3
2016-10-21T04:08:40.330Z,9.4
2016-10-21T04:09:00.901Z,9.4
2016-10-21T04:09:21.466Z,9.4
2016-10-21T04:09:42.052Z,9.4
2016-10-21T04:10:02.621Z,9.4
2016-10-21T04:10:23.205Z,9.4
2016-10-21T04:10:43.771Z,9.4
2016-10-21T04:11:04.337Z,9.3
2016-10-21T04:11:24.930Z,9.4
2016-10-21T04:11:45.507Z,9.4
2016-10-21T04:12:06.102Z,9.4
2016-10-21T04:12:26.660Z,9.4
2016-10-21T04:12:47.277Z,9.3
2016-10-21T04:13:07.860Z,9.4
2016-10-21T04:13:28.489Z,9.4
2016-10-21T04:13:49.066Z,9.3
2016-10-21T04:14:09.635Z,9.4
2016-10-21T04:14:30.229Z,9.4
2016-10-21T04:14:50.824Z,9.4
2016-10-21T04:15:11.398Z,9.4
2016-10-21T04:15:31.993Z,9.4
2016-10-21T04:15:52.604Z,9.4
2016-10-21T04:16:13.171Z,9.4
2016-10-21T04:16:33.804Z,9.3
2016-10-21T04:16:54.410Z,9.3
2016-10-21T04:17:15.009Z,9.4
2016-10-21T04:17:35.584Z,9.4
2016-10-21T04:17:56.170Z,9.3
2016-10-21T04:18:16.726Z,9.4
2016-10-21T04:18:37.302Z,9.4
2016-10-21T04:18:57.903Z,9.4
2016-10-21T04:19:18.474Z,9.3
2016-10-21T04:19:39.076Z,9.4
2016-10-21T04:19:59.666Z,9.3
2016-10-21T04:20:20.245Z,9.3
2016-10-21T04:20:40.852Z,9.4
2016-10-21T04:21:01.415Z,9.3
2016-10-21T04:21:21.988Z,9.4
2016-10-21T04:21:42.563Z,9.3
2016-10-21T04:22:03.156Z,9.4
2016-10-21T04:22:23.737Z,9.4
2016-10-21T04:22:44.342Z,9.4
2016-10-21T04:23:04.974Z,9.4
2016-10-21T04:23:25.547Z,9.3
2016-10-21T04:23:46.124Z,9.3
2016-10-21T04:24:06.686Z,9.3
2016-10-21T04:24:27.262Z,9.3
2016-10-21T04:24:47.844Z,9.3
2016-10-21T04:25:08.468Z,9.4
2016-10-21T04:25:29.071Z,9.3
2016-10-21T04:25:49.627Z,9.3
2016-10-21T04:26:10.204Z,9.4
2016-10-21T04:26:30.786Z,9.3
2016-10-21T04:26:51.359Z,9.4
2016-10-21T04:27:11.931Z,9.3
2016-10-21T04:27:32.505Z,9.3
2016-10-21T04:27:53.082Z,9.3
2016-10-21T04:28:13.689Z,9.4
2016-10-21T04:28:34.247Z,9.3
2016-10-21T04:28:54.852Z,9.3
2016-10-21T04:29:15.448Z,9.3
2016-10-21T04:29:36.009Z,9.3
2016-10-21T04:29:56.592Z,9.3
2016-10-21T04:30:17.165Z,9.3
2016-10-21T04:30:37.735Z,9.2
2016-10-21T04:30:58.309Z,9.2
2016-10-21T04:31:18.894Z,9.2
2016-10-21T04:31:39.504Z,9.2
2016-10-21T04:32:00.094Z,9.3
2016-10-21T04:32:20.684Z,9.2
2016-10-21T04:32:41.253Z,9.3
2016-10-21T04:33:01.816Z,9.3
2016-10-21T04:33:22.400Z,9.2
2016-10-21T04:33:43.008Z,9.4
2016-10-21T04:34:03.605Z,9.2
2016-10-21T04:34:24.184Z,9.3
2016-10-21T04:34:44.763Z,9.3
2016-10-21T04:35:05.375Z,9.3
2016-10-21T04:35:25.949Z,9.2
2016-10-21T04:35:46.518Z,9.2
2016-10-21T04:36:07.107Z,9.3
2016-10-21T04:36:27.696Z,9.2
2016-10-21T04:36:48.285Z,9.2
2016-10-21T04:37:08.905Z,9.2
2016-10-21T04:37:29.506Z,9.2
2016-10-21T04:37:50.091Z,9.3
2016-10-21T04:38:10.668Z,9.3
2016-10-21T04:38:31.233Z,9.2
2016-10-21T04:38:51.806Z,9.3
2016-10-21T04:39:12.394Z,9.3
2016-10-21T04:39:32.977Z,9.2
2016-10-21T04:39:53.587Z,9.3
2016-10-21T04:40:14.161Z,9.2
2016-10-21T04:40:34.738Z,9.3
2016-10-21T04:40:55.357Z,9.2
2016-10-21T04:41:15.932Z,9.2
2016-10-21T04:41:36.511Z,9.3
2016-10-21T04:41:57.103Z,9.2
2016-10-21T04:42:17.681Z,9.2
2016-10-21T04:42:38.253Z,9.2
2016-10-21T04:42:58.842Z,9.3
2016-10-21T04:43:19.419Z,9.3
2016-10-21T04:43:39.997Z,9.3
2016-10-21T04:44:00.567Z,9.2
2016-10-21T04:44:21.144Z,9.2
2016-10-21T04:44:41.703Z,9.3